sensor_id;sensor_type;location;lat;lon;timestamp;P1;durP1;ratioP1;P2;durP2;ratioP2
7412;SDS011;3748;48.136;11.538;2022-12-11T00:01:10;41.10;;;20.90;;
7412;SDS011;3748;48.136;11.538;2022-12-11T00:03:38;51.60;;;27.00;;
7412;SDS011;3748;48.136;11.538;2022-12-11T00:06:05;47.00;;;24.07;;
7412;SDS011;3748;48.136;11.538;2022-12-11T00:08:33;47.40;;;26.00;;
7412;SDS011;3748;48.136;11.538;2022-12-11T00:11:02;43.97;;;21.23;;
7412;SDS011;3748;48.136;11.538;2022-12-11T00:13:44;50.73;;;25.50;;
7412;SDS011;3748;48.136;11.538;2022-12-11T00:16:13;47.87;;;22.77;;
7412;SDS011;3748;48.136;11.538;2022-12-11T00:18:44;58.53;;;25.00;;
7412;SDS011;3748;48.136;11.538;2022-12-11T00:21:13;40.60;;;23.23;;
7412;SDS011;3748;48.136;11.538;2022-12-11T00:23:45;44.70;;;22.90;;
7412;SDS011;3748;48.136;11.538;2022-12-11T00:26:14;43.00;;;24.20;;
7412;SDS011;3748;48.136;11.538;2022-12-11T00:28:53;52.10;;;23.50;;
7412;SDS011;3748;48.136;11.538;2022-12-11T00:31:23;52.63;;;23.27;;
7412;SDS011;3748;48.136;11.538;2022-12-11T00:34:04;47.00;;;24.90;;
7412;SDS011;3748;48.136;11.538;2022-12-11T00:36:31;43.40;;;20.93;;
7412;SDS011;3748;48.136;11.538;2022-12-11T00:39:02;53.50;;;23.80;;
7412;SDS011;3748;48.136;11.538;2022-12-11T00:41:32;43.80;;;21.17;;
7412;SDS011;3748;48.136;11.538;2022-12-11T00:44:01;46.73;;;25.10;;
7412;SDS011;3748;48.136;11.538;2022-12-11T00:46:30;41.43;;;22.77;;
7412;SDS011;3748;48.136;11.538;2022-12-11T00:48:57;48.10;;;22.30;;
7412;SDS011;3748;48.136;11.538;2022-12-11T00:51:25;36.13;;;20.47;;
7412;SDS011;3748;48.136;11.538;2022-12-11T00:53:53;38.43;;;19.50;;
7412;SDS011;3748;48.136;11.538;2022-12-11T00:56:21;36.17;;;19.57;;
7412;SDS011;3748;48.136;11.538;2022-12-11T00:58:49;36.47;;;20.53;;
7412;SDS011;3748;48.136;11.538;2022-12-11T01:01:20;34.33;;;19.00;;
7412;SDS011;3748;48.136;11.538;2022-12-11T01:03:52;32.80;;;18.20;;
7412;SDS011;3748;48.136;11.538;2022-12-11T01:06:20;34.23;;;17.60;;
7412;SDS011;3748;48.136;11.538;2022-12-11T01:08:50;33.37;;;18.67;;
7412;SDS011;3748;48.136;11.538;2022-12-11T01:11:39;40.50;;;19.87;;
7412;SDS011;3748;48.136;11.538;2022-12-11T01:14:07;37.17;;;20.67;;
7412;SDS011;3748;48.136;11.538;2022-12-11T01:16:35;32.50;;;16.97;;
7412;SDS011;3748;48.136;11.538;2022-12-11T01:19:11;38.07;;;18.87;;
7412;SDS011;3748;48.136;11.538;2022-12-11T01:21:41;30.83;;;17.17;;
7412;SDS011;3748;48.136;11.538;2022-12-11T01:24:11;37.53;;;17.27;;
7412;SDS011;3748;48.136;11.538;2022-12-11T01:26:39;44.20;;;19.57;;
7412;SDS011;3748;48.136;11.538;2022-12-11T01:29:08;40.33;;;21.00;;
7412;SDS011;3748;48.136;11.538;2022-12-11T01:31:35;38.83;;;17.87;;
7412;SDS011;3748;48.136;11.538;2022-12-11T01:34:03;42.80;;;20.43;;
7412;SDS011;3748;48.136;11.538;2022-12-11T01:36:35;32.43;;;18.27;;
7412;SDS011;3748;48.136;11.538;2022-12-11T01:39:03;35.87;;;19.20;;
7412;SDS011;3748;48.136;11.538;2022-12-11T01:41:32;34.00;;;17.67;;
7412;SDS011;3748;48.136;11.538;2022-12-11T01:44:02;36.37;;;18.60;;
7412;SDS011;3748;48.136;11.538;2022-12-11T01:46:35;33.47;;;19.40;;
7412;SDS011;3748;48.136;11.538;2022-12-11T01:49:05;39.47;;;19.57;;
7412;SDS011;3748;48.136;11.538;2022-12-11T01:51:39;38.70;;;20.03;;
7412;SDS011;3748;48.136;11.538;2022-12-11T01:54:12;34.33;;;18.57;;
7412;SDS011;3748;48.136;11.538;2022-12-11T01:56:45;30.77;;;15.73;;
7412;SDS011;3748;48.136;11.538;2022-12-11T01:59:15;32.77;;;16.60;;
7412;SDS011;3748;48.136;11.538;2022-12-11T02:01:50;33.93;;;16.20;;
7412;SDS011;3748;48.136;11.538;2022-12-11T02:04:22;32.93;;;16.63;;
7412;SDS011;3748;48.136;11.538;2022-12-11T02:06:56;37.37;;;18.30;;
7412;SDS011;3748;48.136;11.538;2022-12-11T02:09:24;36.77;;;19.93;;
7412;SDS011;3748;48.136;11.538;2022-12-11T02:11:59;30.37;;;16.00;;
7412;SDS011;3748;48.136;11.538;2022-12-11T02:14:30;26.07;;;16.63;;
7412;SDS011;3748;48.136;11.538;2022-12-11T02:17:11;27.90;;;15.73;;
7412;SDS011;3748;48.136;11.538;2022-12-11T02:19:48;29.53;;;16.37;;
7412;SDS011;3748;48.136;11.538;2022-12-11T02:22:27;31.27;;;15.00;;
7412;SDS011;3748;48.136;11.538;2022-12-11T02:25:11;32.17;;;17.00;;
7412;SDS011;3748;48.136;11.538;2022-12-11T02:27:44;30.50;;;18.97;;
7412;SDS011;3748;48.136;11.538;2022-12-11T02:30:14;36.00;;;17.37;;
7412;SDS011;3748;48.136;11.538;2022-12-11T02:32:42;30.73;;;15.80;;
7412;SDS011;3748;48.136;11.538;2022-12-11T02:35:14;28.93;;;15.80;;
7412;SDS011;3748;48.136;11.538;2022-12-11T02:37:45;34.17;;;20.20;;
7412;SDS011;3748;48.136;11.538;2022-12-11T02:40:16;34.70;;;17.20;;
7412;SDS011;3748;48.136;11.538;2022-12-11T02:42:46;32.03;;;15.70;;
7412;SDS011;3748;48.136;11.538;2022-12-11T02:45:17;30.50;;;17.63;;
7412;SDS011;3748;48.136;11.538;2022-12-11T02:47:47;30.43;;;16.27;;
7412;SDS011;3748;48.136;11.538;2022-12-11T02:50:17;32.43;;;18.30;;
7412;SDS011;3748;48.136;11.538;2022-12-11T02:52:47;27.63;;;15.90;;
7412;SDS011;3748;48.136;11.538;2022-12-11T02:55:21;32.67;;;15.87;;
7412;SDS011;3748;48.136;11.538;2022-12-11T02:57:55;34.50;;;17.87;;
7412;SDS011;3748;48.136;11.538;2022-12-11T03:00:30;29.03;;;15.33;;
7412;SDS011;3748;48.136;11.538;2022-12-11T03:02:58;36.23;;;18.40;;
7412;SDS011;3748;48.136;11.538;2022-12-11T03:05:27;32.67;;;16.73;;
7412;SDS011;3748;48.136;11.538;2022-12-11T03:07:56;34.63;;;16.13;;
7412;SDS011;3748;48.136;11.538;2022-12-11T03:10:25;32.70;;;17.23;;
7412;SDS011;3748;48.136;11.538;2022-12-11T03:12:53;30.87;;;16.20;;
7412;SDS011;3748;48.136;11.538;2022-12-11T03:15:32;30.53;;;16.23;;
7412;SDS011;3748;48.136;11.538;2022-12-11T03:18:08;24.60;;;14.23;;
7412;SDS011;3748;48.136;11.538;2022-12-11T03:20:40;34.20;;;18.50;;
7412;SDS011;3748;48.136;11.538;2022-12-11T03:23:12;30.13;;;15.67;;
7412;SDS011;3748;48.136;11.538;2022-12-11T03:25:46;24.60;;;13.40;;
7412;SDS011;3748;48.136;11.538;2022-12-11T03:28:20;29.10;;;15.70;;
7412;SDS011;3748;48.136;11.538;2022-12-11T03:30:54;26.50;;;14.73;;
7412;SDS011;3748;48.136;11.538;2022-12-11T03:33:25;32.03;;;15.20;;
7412;SDS011;3748;48.136;11.538;2022-12-11T03:35:58;30.07;;;16.63;;
7412;SDS011;3748;48.136;11.538;2022-12-11T03:38:30;32.13;;;16.00;;
7412;SDS011;3748;48.136;11.538;2022-12-11T03:41:02;22.47;;;12.17;;
7412;SDS011;3748;48.136;11.538;2022-12-11T03:43:33;32.03;;;16.93;;
7412;SDS011;3748;48.136;11.538;2022-12-11T03:46:05;25.17;;;12.63;;
7412;SDS011;3748;48.136;11.538;2022-12-11T03:48:35;23.33;;;12.60;;
7412;SDS011;3748;48.136;11.538;2022-12-11T03:51:08;28.27;;;14.43;;
7412;SDS011;3748;48.136;11.538;2022-12-11T03:53:36;27.97;;;15.07;;
7412;SDS011;3748;48.136;11.538;2022-12-11T03:56:07;23.10;;;13.03;;
7412;SDS011;3748;48.136;11.538;2022-12-11T03:58:37;22.87;;;11.97;;
7412;SDS011;3748;48.136;11.538;2022-12-11T04:01:09;26.53;;;14.70;;
7412;SDS011;3748;48.136;11.538;2022-12-11T04:03:37;28.63;;;13.53;;
7412;SDS011;3748;48.136;11.538;2022-12-11T04:06:05;26.27;;;13.20;;
7412;SDS011;3748;48.136;11.538;2022-12-11T04:08:41;27.37;;;12.57;;
7412;SDS011;3748;48.136;11.538;2022-12-11T04:11:14;25.57;;;13.70;;
7412;SDS011;3748;48.136;11.538;2022-12-11T04:13:58;21.13;;;13.13;;
7412;SDS011;3748;48.136;11.538;2022-12-11T04:16:56;24.37;;;13.63;;
7412;SDS011;3748;48.136;11.538;2022-12-11T04:19:25;19.53;;;11.27;;
7412;SDS011;3748;48.136;11.538;2022-12-11T04:22:11;29.67;;;14.27;;
7412;SDS011;3748;48.136;11.538;2022-12-11T04:24:56;18.97;;;12.13;;
7412;SDS011;3748;48.136;11.538;2022-12-11T04:27:24;25.30;;;13.83;;
7412;SDS011;3748;48.136;11.538;2022-12-11T04:30:10;28.83;;;14.07;;
7412;SDS011;3748;48.136;11.538;2022-12-11T04:32:40;20.10;;;12.03;;
7412;SDS011;3748;48.136;11.538;2022-12-11T04:35:08;20.80;;;11.07;;
7412;SDS011;3748;48.136;11.538;2022-12-11T04:37:36;28.80;;;14.40;;
7412;SDS011;3748;48.136;11.538;2022-12-11T04:40:04;29.90;;;15.80;;
7412;SDS011;3748;48.136;11.538;2022-12-11T04:42:32;29.63;;;15.27;;
7412;SDS011;3748;48.136;11.538;2022-12-11T04:44:59;24.40;;;13.07;;
7412;SDS011;3748;48.136;11.538;2022-12-11T04:47:26;26.57;;;15.10;;
7412;SDS011;3748;48.136;11.538;2022-12-11T04:49:54;29.60;;;15.37;;
7412;SDS011;3748;48.136;11.538;2022-12-11T04:52:22;20.90;;;13.23;;
7412;SDS011;3748;48.136;11.538;2022-12-11T04:54:49;27.60;;;16.37;;
7412;SDS011;3748;48.136;11.538;2022-12-11T04:57:16;24.60;;;13.43;;
7412;SDS011;3748;48.136;11.538;2022-12-11T04:59:44;24.53;;;12.23;;
7412;SDS011;3748;48.136;11.538;2022-12-11T05:02:11;21.00;;;11.67;;
7412;SDS011;3748;48.136;11.538;2022-12-11T05:04:40;20.80;;;10.40;;
7412;SDS011;3748;48.136;11.538;2022-12-11T05:07:09;18.97;;;11.03;;
7412;SDS011;3748;48.136;11.538;2022-12-11T05:09:36;17.00;;;8.53;;
7412;SDS011;3748;48.136;11.538;2022-12-11T05:12:03;17.93;;;9.40;;
7412;SDS011;3748;48.136;11.538;2022-12-11T05:14:30;22.87;;;10.40;;
7412;SDS011;3748;48.136;11.538;2022-12-11T05:16:57;19.20;;;10.57;;
7412;SDS011;3748;48.136;11.538;2022-12-11T05:19:25;19.77;;;12.10;;
7412;SDS011;3748;48.136;11.538;2022-12-11T05:21:53;17.90;;;10.53;;
7412;SDS011;3748;48.136;11.538;2022-12-11T05:24:21;20.97;;;10.83;;
7412;SDS011;3748;48.136;11.538;2022-12-11T05:26:49;21.50;;;10.70;;
7412;SDS011;3748;48.136;11.538;2022-12-11T05:29:16;16.33;;;10.07;;
7412;SDS011;3748;48.136;11.538;2022-12-11T05:31:50;18.67;;;8.60;;
7412;SDS011;3748;48.136;11.538;2022-12-11T05:34:17;14.90;;;9.07;;
7412;SDS011;3748;48.136;11.538;2022-12-11T05:36:46;15.10;;;8.73;;
7412;SDS011;3748;48.136;11.538;2022-12-11T05:39:16;15.10;;;8.00;;
7412;SDS011;3748;48.136;11.538;2022-12-11T05:41:47;16.03;;;8.90;;
7412;SDS011;3748;48.136;11.538;2022-12-11T05:44:14;11.97;;;7.77;;
7412;SDS011;3748;48.136;11.538;2022-12-11T05:46:41;13.17;;;8.87;;
7412;SDS011;3748;48.136;11.538;2022-12-11T05:49:09;15.87;;;8.53;;
7412;SDS011;3748;48.136;11.538;2022-12-11T05:51:36;14.97;;;8.37;;
7412;SDS011;3748;48.136;11.538;2022-12-11T05:54:04;11.63;;;7.90;;
7412;SDS011;3748;48.136;11.538;2022-12-11T05:56:31;16.07;;;8.53;;
7412;SDS011;3748;48.136;11.538;2022-12-11T05:59:01;16.10;;;7.90;;
7412;SDS011;3748;48.136;11.538;2022-12-11T06:01:30;13.47;;;7.83;;
7412;SDS011;3748;48.136;11.538;2022-12-11T06:03:59;17.80;;;9.40;;
7412;SDS011;3748;48.136;11.538;2022-12-11T06:06:26;14.20;;;8.57;;
7412;SDS011;3748;48.136;11.538;2022-12-11T06:08:54;16.70;;;9.10;;
7412;SDS011;3748;48.136;11.538;2022-12-11T06:11:22;13.77;;;8.50;;
7412;SDS011;3748;48.136;11.538;2022-12-11T06:13:50;14.90;;;7.47;;
7412;SDS011;3748;48.136;11.538;2022-12-11T06:16:19;15.97;;;9.27;;
7412;SDS011;3748;48.136;11.538;2022-12-11T06:18:47;14.10;;;8.73;;
7412;SDS011;3748;48.136;11.538;2022-12-11T06:21:15;14.50;;;9.03;;
7412;SDS011;3748;48.136;11.538;2022-12-11T06:23:44;18.87;;;10.73;;
7412;SDS011;3748;48.136;11.538;2022-12-11T06:26:12;22.63;;;9.87;;
7412;SDS011;3748;48.136;11.538;2022-12-11T06:28:40;17.13;;;10.17;;
7412;SDS011;3748;48.136;11.538;2022-12-11T06:31:07;17.57;;;9.43;;
7412;SDS011;3748;48.136;11.538;2022-12-11T06:33:38;22.40;;;11.23;;
7412;SDS011;3748;48.136;11.538;2022-12-11T06:36:07;26.03;;;12.40;;
7412;SDS011;3748;48.136;11.538;2022-12-11T06:38:38;20.30;;;11.70;;
7412;SDS011;3748;48.136;11.538;2022-12-11T06:41:06;22.97;;;13.53;;
7412;SDS011;3748;48.136;11.538;2022-12-11T06:43:36;27.20;;;13.80;;
7412;SDS011;3748;48.136;11.538;2022-12-11T06:46:05;26.10;;;13.03;;
7412;SDS011;3748;48.136;11.538;2022-12-11T06:48:33;25.87;;;13.60;;
7412;SDS011;3748;48.136;11.538;2022-12-11T06:51:04;23.17;;;11.63;;
7412;SDS011;3748;48.136;11.538;2022-12-11T06:53:32;22.10;;;11.70;;
7412;SDS011;3748;48.136;11.538;2022-12-11T06:56:00;26.20;;;14.80;;
7412;SDS011;3748;48.136;11.538;2022-12-11T06:58:29;24.80;;;11.87;;
7412;SDS011;3748;48.136;11.538;2022-12-11T07:00:57;17.10;;;11.67;;
7412;SDS011;3748;48.136;11.538;2022-12-11T07:03:24;22.57;;;11.17;;
7412;SDS011;3748;48.136;11.538;2022-12-11T07:05:53;24.17;;;12.67;;
7412;SDS011;3748;48.136;11.538;2022-12-11T07:08:26;24.47;;;14.60;;
7412;SDS011;3748;48.136;11.538;2022-12-11T07:11:00;23.97;;;14.03;;
7412;SDS011;3748;48.136;11.538;2022-12-11T07:13:29;26.60;;;13.00;;
7412;SDS011;3748;48.136;11.538;2022-12-11T07:15:58;21.50;;;13.40;;
7412;SDS011;3748;48.136;11.538;2022-12-11T07:18:26;29.90;;;12.30;;
7412;SDS011;3748;48.136;11.538;2022-12-11T07:20:57;22.40;;;12.33;;
7412;SDS011;3748;48.136;11.538;2022-12-11T07:23:26;22.70;;;11.67;;
7412;SDS011;3748;48.136;11.538;2022-12-11T07:25:54;21.83;;;11.03;;
7412;SDS011;3748;48.136;11.538;2022-12-11T07:28:22;29.40;;;14.83;;
7412;SDS011;3748;48.136;11.538;2022-12-11T07:30:50;19.07;;;12.20;;
7412;SDS011;3748;48.136;11.538;2022-12-11T07:33:17;26.90;;;13.57;;
7412;SDS011;3748;48.136;11.538;2022-12-11T07:35:45;25.53;;;12.33;;
7412;SDS011;3748;48.136;11.538;2022-12-11T07:38:14;24.13;;;12.90;;
7412;SDS011;3748;48.136;11.538;2022-12-11T07:40:42;28.50;;;13.67;;
7412;SDS011;3748;48.136;11.538;2022-12-11T07:43:09;27.50;;;12.57;;
7412;SDS011;3748;48.136;11.538;2022-12-11T07:45:38;24.10;;;11.20;;
7412;SDS011;3748;48.136;11.538;2022-12-11T07:48:18;30.80;;;15.80;;
7412;SDS011;3748;48.136;11.538;2022-12-11T07:51:06;26.30;;;13.90;;
7412;SDS011;3748;48.136;11.538;2022-12-11T07:53:37;28.90;;;14.97;;
7412;SDS011;3748;48.136;11.538;2022-12-11T07:56:05;30.83;;;13.47;;
7412;SDS011;3748;48.136;11.538;2022-12-11T07:58:33;27.03;;;13.40;;
7412;SDS011;3748;48.136;11.538;2022-12-11T08:01:03;27.50;;;14.83;;
7412;SDS011;3748;48.136;11.538;2022-12-11T08:03:34;24.00;;;12.57;;
7412;SDS011;3748;48.136;11.538;2022-12-11T08:06:08;32.57;;;14.80;;
7412;SDS011;3748;48.136;11.538;2022-12-11T08:08:37;27.83;;;15.13;;
7412;SDS011;3748;48.136;11.538;2022-12-11T09:04:55;20.10;;;11.90;;
7412;SDS011;3748;48.136;11.538;2022-12-11T09:07:22;23.93;;;13.40;;
7412;SDS011;3748;48.136;11.538;2022-12-11T09:09:49;22.70;;;13.70;;
7412;SDS011;3748;48.136;11.538;2022-12-11T09:20:07;21.10;;;10.37;;
7412;SDS011;3748;48.136;11.538;2022-12-11T09:22:35;21.37;;;13.37;;
7412;SDS011;3748;48.136;11.538;2022-12-11T09:30:13;19.23;;;12.57;;
7412;SDS011;3748;48.136;11.538;2022-12-11T09:35:23;19.70;;;10.60;;
7412;SDS011;3748;48.136;11.538;2022-12-11T09:37:52;15.43;;;9.60;;
7412;SDS011;3748;48.136;11.538;2022-12-11T09:40:19;19.37;;;11.40;;
7412;SDS011;3748;48.136;11.538;2022-12-11T09:42:49;14.70;;;7.93;;
7412;SDS011;3748;48.136;11.538;2022-12-11T09:45:20;12.10;;;9.13;;
7412;SDS011;3748;48.136;11.538;2022-12-11T09:50:24;20.53;;;11.87;;
7412;SDS011;3748;48.136;11.538;2022-12-11T10:06:24;13.73;;;10.17;;
7412;SDS011;3748;48.136;11.538;2022-12-11T10:11:57;13.70;;;8.47;;
7412;SDS011;3748;48.136;11.538;2022-12-11T10:43:02;16.93;;;10.30;;
7412;SDS011;3748;48.136;11.538;2022-12-11T10:45:30;16.80;;;10.20;;
7412;SDS011;3748;48.136;11.538;2022-12-11T10:48:01;19.07;;;11.40;;
7412;SDS011;3748;48.136;11.538;2022-12-11T10:50:29;16.07;;;9.40;;
7412;SDS011;3748;48.136;11.538;2022-12-11T10:52:56;17.23;;;10.37;;
7412;SDS011;3748;48.136;11.538;2022-12-11T10:58:05;16.93;;;9.97;;
7412;SDS011;3748;48.136;11.538;2022-12-11T11:39:41;12.37;;;8.63;;
7412;SDS011;3748;48.136;11.538;2022-12-11T11:42:14;20.50;;;8.33;;
7412;SDS011;3748;48.136;11.538;2022-12-11T11:44:45;12.40;;;8.77;;
7412;SDS011;3748;48.136;11.538;2022-12-11T11:47:21;16.80;;;8.93;;
7412;SDS011;3748;48.136;11.538;2022-12-11T11:49:52;16.53;;;10.23;;
7412;SDS011;3748;48.136;11.538;2022-12-11T12:00:20;12.10;;;7.60;;
7412;SDS011;3748;48.136;11.538;2022-12-11T12:18:27;14.13;;;8.50;;
7412;SDS011;3748;48.136;11.538;2022-12-11T12:54:57;8.00;;;5.37;;
7412;SDS011;3748;48.136;11.538;2022-12-11T13:00:09;9.03;;;6.50;;
7412;SDS011;3748;48.136;11.538;2022-12-11T13:13:00;10.17;;;7.50;;
7412;SDS011;3748;48.136;11.538;2022-12-11T13:15:38;10.77;;;6.47;;
7412;SDS011;3748;48.136;11.538;2022-12-11T13:18:32;9.53;;;7.17;;
7412;SDS011;3748;48.136;11.538;2022-12-11T13:23:36;11.53;;;8.13;;
7412;SDS011;3748;48.136;11.538;2022-12-11T13:36:29;9.20;;;6.07;;
7412;SDS011;3748;48.136;11.538;2022-12-11T13:39:02;8.13;;;6.33;;
7412;SDS011;3748;48.136;11.538;2022-12-11T13:41:32;5.53;;;4.97;;
7412;SDS011;3748;48.136;11.538;2022-12-11T13:44:02;8.33;;;6.07;;
7412;SDS011;3748;48.136;11.538;2022-12-11T13:46:32;7.50;;;5.87;;
7412;SDS011;3748;48.136;11.538;2022-12-11T13:49:03;4.80;;;3.27;;
7412;SDS011;3748;48.136;11.538;2022-12-11T13:51:33;6.40;;;5.70;;
7412;SDS011;3748;48.136;11.538;2022-12-11T13:54:06;6.27;;;4.50;;
7412;SDS011;3748;48.136;11.538;2022-12-11T13:56:39;8.50;;;5.43;;
7412;SDS011;3748;48.136;11.538;2022-12-11T13:59:25;7.40;;;4.57;;
7412;SDS011;3748;48.136;11.538;2022-12-11T14:01:54;6.80;;;4.97;;
7412;SDS011;3748;48.136;11.538;2022-12-11T14:04:24;6.93;;;4.90;;
7412;SDS011;3748;48.136;11.538;2022-12-11T14:06:54;7.57;;;5.40;;
7412;SDS011;3748;48.136;11.538;2022-12-11T14:09:22;7.00;;;4.63;;
7412;SDS011;3748;48.136;11.538;2022-12-11T14:11:52;7.60;;;4.83;;
7412;SDS011;3748;48.136;11.538;2022-12-11T14:32:41;7.77;;;4.93;;
7412;SDS011;3748;48.136;11.538;2022-12-11T14:37:39;8.37;;;5.90;;
7412;SDS011;3748;48.136;11.538;2022-12-11T14:40:13;8.00;;;5.50;;
7412;SDS011;3748;48.136;11.538;2022-12-11T14:42:44;7.03;;;4.33;;
7412;SDS011;3748;48.136;11.538;2022-12-11T14:47:54;10.97;;;6.30;;
7412;SDS011;3748;48.136;11.538;2022-12-11T14:50:24;11.43;;;6.70;;
7412;SDS011;3748;48.136;11.538;2022-12-11T14:52:56;15.30;;;6.33;;
7412;SDS011;3748;48.136;11.538;2022-12-11T14:55:27;13.10;;;6.40;;
7412;SDS011;3748;48.136;11.538;2022-12-11T14:57:58;5.93;;;5.17;;
7412;SDS011;3748;48.136;11.538;2022-12-11T15:00:27;11.47;;;7.77;;
7412;SDS011;3748;48.136;11.538;2022-12-11T15:02:57;10.20;;;6.50;;
7412;SDS011;3748;48.136;11.538;2022-12-11T15:05:26;8.70;;;5.40;;
7412;SDS011;3748;48.136;11.538;2022-12-11T15:07:54;13.37;;;7.17;;
7412;SDS011;3748;48.136;11.538;2022-12-11T15:10:26;10.83;;;6.40;;
7412;SDS011;3748;48.136;11.538;2022-12-11T15:20:42;9.37;;;7.07;;
7412;SDS011;3748;48.136;11.538;2022-12-11T15:25:39;8.40;;;6.07;;
7412;SDS011;3748;48.136;11.538;2022-12-11T15:31:23;13.50;;;7.60;;
7412;SDS011;3748;48.136;11.538;2022-12-11T15:36:32;17.63;;;8.50;;
7412;SDS011;3748;48.136;11.538;2022-12-11T15:39:02;13.50;;;9.23;;
7412;SDS011;3748;48.136;11.538;2022-12-11T15:41:32;15.17;;;7.57;;
7412;SDS011;3748;48.136;11.538;2022-12-11T15:44:00;12.20;;;7.00;;
7412;SDS011;3748;48.136;11.538;2022-12-11T15:46:28;17.20;;;8.50;;
7412;SDS011;3748;48.136;11.538;2022-12-11T15:49:00;13.60;;;9.17;;
7412;SDS011;3748;48.136;11.538;2022-12-11T15:51:27;15.73;;;8.03;;
7412;SDS011;3748;48.136;11.538;2022-12-11T15:53:55;13.20;;;8.50;;
7412;SDS011;3748;48.136;11.538;2022-12-11T15:56:22;16.33;;;10.53;;
7412;SDS011;3748;48.136;11.538;2022-12-11T15:58:51;18.77;;;10.83;;
7412;SDS011;3748;48.136;11.538;2022-12-11T16:01:18;15.43;;;7.80;;
7412;SDS011;3748;48.136;11.538;2022-12-11T16:03:45;12.83;;;8.17;;
7412;SDS011;3748;48.136;11.538;2022-12-11T16:06:14;15.30;;;9.80;;
7412;SDS011;3748;48.136;11.538;2022-12-11T16:08:41;12.73;;;8.57;;
7412;SDS011;3748;48.136;11.538;2022-12-11T16:11:09;13.50;;;8.17;;
7412;SDS011;3748;48.136;11.538;2022-12-11T16:13:38;11.23;;;8.00;;
7412;SDS011;3748;48.136;11.538;2022-12-11T16:16:05;20.13;;;8.60;;
7412;SDS011;3748;48.136;11.538;2022-12-11T16:19:08;10.43;;;7.10;;
7412;SDS011;3748;48.136;11.538;2022-12-11T16:21:37;17.77;;;7.80;;
7412;SDS011;3748;48.136;11.538;2022-12-11T16:24:06;13.40;;;9.20;;
7412;SDS011;3748;48.136;11.538;2022-12-11T16:26:50;11.10;;;7.67;;
7412;SDS011;3748;48.136;11.538;2022-12-11T16:29:20;14.53;;;8.13;;
7412;SDS011;3748;48.136;11.538;2022-12-11T16:31:47;14.23;;;9.00;;
7412;SDS011;3748;48.136;11.538;2022-12-11T16:34:16;14.87;;;9.10;;
7412;SDS011;3748;48.136;11.538;2022-12-11T16:36:50;15.87;;;9.27;;
7412;SDS011;3748;48.136;11.538;2022-12-11T16:39:20;16.50;;;11.17;;
7412;SDS011;3748;48.136;11.538;2022-12-11T16:41:47;16.53;;;10.43;;
7412;SDS011;3748;48.136;11.538;2022-12-11T16:44:16;11.10;;;6.90;;
7412;SDS011;3748;48.136;11.538;2022-12-11T16:46:44;17.23;;;9.27;;
7412;SDS011;3748;48.136;11.538;2022-12-11T16:49:11;18.70;;;11.33;;
7412;SDS011;3748;48.136;11.538;2022-12-11T16:51:40;20.67;;;10.40;;
7412;SDS011;3748;48.136;11.538;2022-12-11T16:54:06;15.40;;;8.80;;
7412;SDS011;3748;48.136;11.538;2022-12-11T16:56:33;19.47;;;10.47;;
7412;SDS011;3748;48.136;11.538;2022-12-11T16:59:00;16.43;;;11.60;;
7412;SDS011;3748;48.136;11.538;2022-12-11T17:01:28;20.90;;;10.83;;
7412;SDS011;3748;48.136;11.538;2022-12-11T17:03:55;18.87;;;10.37;;
7412;SDS011;3748;48.136;11.538;2022-12-11T17:06:23;14.70;;;9.77;;
7412;SDS011;3748;48.136;11.538;2022-12-11T17:08:52;16.07;;;10.20;;
7412;SDS011;3748;48.136;11.538;2022-12-11T17:11:19;13.20;;;9.57;;
7412;SDS011;3748;48.136;11.538;2022-12-11T17:13:51;16.03;;;11.57;;
7412;SDS011;3748;48.136;11.538;2022-12-11T17:16:18;15.00;;;10.00;;
7412;SDS011;3748;48.136;11.538;2022-12-11T17:18:46;18.17;;;9.87;;
7412;SDS011;3748;48.136;11.538;2022-12-11T17:21:13;20.43;;;12.43;;
7412;SDS011;3748;48.136;11.538;2022-12-11T17:23:41;18.07;;;11.87;;
7412;SDS011;3748;48.136;11.538;2022-12-11T17:26:10;14.23;;;10.43;;
7412;SDS011;3748;48.136;11.538;2022-12-11T17:28:38;16.83;;;10.80;;
7412;SDS011;3748;48.136;11.538;2022-12-11T17:31:05;17.60;;;11.00;;
7412;SDS011;3748;48.136;11.538;2022-12-11T17:33:33;16.93;;;10.40;;
7412;SDS011;3748;48.136;11.538;2022-12-11T17:36:00;20.10;;;11.30;;
7412;SDS011;3748;48.136;11.538;2022-12-11T17:38:28;21.20;;;11.40;;
7412;SDS011;3748;48.136;11.538;2022-12-11T17:40:56;16.73;;;10.27;;
7412;SDS011;3748;48.136;11.538;2022-12-11T17:43:24;21.33;;;11.30;;
7412;SDS011;3748;48.136;11.538;2022-12-11T17:45:51;16.63;;;9.50;;
7412;SDS011;3748;48.136;11.538;2022-12-11T17:48:19;19.80;;;10.33;;
7412;SDS011;3748;48.136;11.538;2022-12-11T17:50:47;17.37;;;9.23;;
7412;SDS011;3748;48.136;11.538;2022-12-11T17:53:15;20.73;;;11.50;;
7412;SDS011;3748;48.136;11.538;2022-12-11T17:55:43;17.57;;;9.23;;
7412;SDS011;3748;48.136;11.538;2022-12-11T17:58:12;17.57;;;11.23;;
7412;SDS011;3748;48.136;11.538;2022-12-11T18:00:42;20.20;;;11.80;;
7412;SDS011;3748;48.136;11.538;2022-12-11T18:03:11;16.10;;;9.30;;
7412;SDS011;3748;48.136;11.538;2022-12-11T18:05:39;17.83;;;10.47;;
7412;SDS011;3748;48.136;11.538;2022-12-11T18:08:07;21.17;;;11.17;;
7412;SDS011;3748;48.136;11.538;2022-12-11T18:10:36;15.27;;;9.50;;
7412;SDS011;3748;48.136;11.538;2022-12-11T18:13:03;15.77;;;9.60;;
7412;SDS011;3748;48.136;11.538;2022-12-11T18:15:30;13.10;;;9.00;;
7412;SDS011;3748;48.136;11.538;2022-12-11T18:17:58;15.37;;;10.40;;
7412;SDS011;3748;48.136;11.538;2022-12-11T18:20:27;16.90;;;9.00;;
7412;SDS011;3748;48.136;11.538;2022-12-11T18:22:56;15.00;;;9.53;;
7412;SDS011;3748;48.136;11.538;2022-12-11T18:25:23;18.43;;;11.13;;
7412;SDS011;3748;48.136;11.538;2022-12-11T18:27:50;16.37;;;9.50;;
7412;SDS011;3748;48.136;11.538;2022-12-11T18:30:19;12.23;;;9.70;;
7412;SDS011;3748;48.136;11.538;2022-12-11T18:32:46;18.10;;;11.37;;
7412;SDS011;3748;48.136;11.538;2022-12-11T18:35:17;16.87;;;10.00;;
7412;SDS011;3748;48.136;11.538;2022-12-11T18:37:45;13.93;;;9.07;;
7412;SDS011;3748;48.136;11.538;2022-12-11T18:40:14;22.47;;;11.03;;
7412;SDS011;3748;48.136;11.538;2022-12-11T18:42:43;12.83;;;8.73;;
7412;SDS011;3748;48.136;11.538;2022-12-11T18:45:10;18.97;;;10.83;;
7412;SDS011;3748;48.136;11.538;2022-12-11T18:47:37;20.67;;;11.00;;
7412;SDS011;3748;48.136;11.538;2022-12-11T18:50:04;19.20;;;11.20;;
7412;SDS011;3748;48.136;11.538;2022-12-11T18:52:33;15.97;;;8.93;;
7412;SDS011;3748;48.136;11.538;2022-12-11T18:55:00;19.57;;;10.73;;
7412;SDS011;3748;48.136;11.538;2022-12-11T18:57:27;19.93;;;10.07;;
7412;SDS011;3748;48.136;11.538;2022-12-11T18:59:54;16.17;;;10.93;;
7412;SDS011;3748;48.136;11.538;2022-12-11T19:02:26;14.90;;;11.10;;
7412;SDS011;3748;48.136;11.538;2022-12-11T19:04:55;16.43;;;10.03;;
7412;SDS011;3748;48.136;11.538;2022-12-11T19:07:23;14.30;;;10.13;;
7412;SDS011;3748;48.136;11.538;2022-12-11T19:09:51;17.67;;;9.37;;
7412;SDS011;3748;48.136;11.538;2022-12-11T19:12:18;18.40;;;10.00;;
7412;SDS011;3748;48.136;11.538;2022-12-11T19:14:45;15.97;;;10.93;;
7412;SDS011;3748;48.136;11.538;2022-12-11T19:17:12;19.37;;;11.10;;
7412;SDS011;3748;48.136;11.538;2022-12-11T19:19:39;20.30;;;11.10;;
7412;SDS011;3748;48.136;11.538;2022-12-11T19:22:07;20.03;;;12.23;;
7412;SDS011;3748;48.136;11.538;2022-12-11T19:24:34;19.53;;;10.00;;
7412;SDS011;3748;48.136;11.538;2022-12-11T19:27:02;18.83;;;11.00;;
7412;SDS011;3748;48.136;11.538;2022-12-11T19:29:29;17.43;;;10.67;;
7412;SDS011;3748;48.136;11.538;2022-12-11T19:31:57;16.50;;;9.47;;
7412;SDS011;3748;48.136;11.538;2022-12-11T19:34:26;18.93;;;10.77;;
7412;SDS011;3748;48.136;11.538;2022-12-11T19:36:53;19.40;;;10.83;;
7412;SDS011;3748;48.136;11.538;2022-12-11T19:39:20;20.70;;;11.70;;